Time;durP1;ratioP1;P1;durP2;ratioP2;P2;SDS_P1;SDS_P2;PMS_P1;PMS_P2;Temp;Humidity;BMP_temperature;BMP_pressure;BME280_temperature;BME280_humidity;BME280_pressure;Samples;Min_cycle;Max_cycle;Signal;HPM_P1;HPM_P2
2023/06/22 00:00:00;;;;;;;11.27;6.53;;;;;;;;;;5074788;28;20021;-71
2023/06/22 00:02:27;;;;;;;9.97;6.03;;;;;;;;;;5069068;28;20278;-73
2023/06/22 00:04:55;;;;;;;13.77;6.63;;;;;;;;;;5074169;28;20018;-67
2023/06/22 00:07:21;;;;;;;10.73;6.60;;;;;;;;;;5072610;28;20745;-69
2023/06/22 00:09:46;;;;;;;12.68;6.97;;;;;;;;;;5074138;28;20041;-73
2023/06/22 00:12:11;;;;;;;11.10;6.17;;;;;;;;;;5072774;28;20729;-69
2023/06/22 00:14:39;;;;;;;9.53;6.23;;;;;;;;;;5095800;27;20265;-70
2023/06/22 00:17:04;;;;;;;12.05;6.25;;;;;;;;;;5047526;28;20290;-69
2023/06/22 00:19:29;;;;;;;12.23;6.10;;;;;;;;;;5054829;28;20035;-72
2023/06/22 00:21:54;;;;;;;8.67;6.00;;;;;;;;;;5040109;28;20313;-73
2023/06/22 00:24:20;;;;;;;9.17;6.57;;;;;;;;;;5054703;28;20758;-71
2023/06/22 00:26:48;;;;;;;10.57;6.45;;;;;;;;;;5068942;28;20035;-68
2023/06/22 00:29:15;;;;;;;12.77;6.53;;;;;;;;;;5049797;28;20016;-71
2023/06/22 00:31:43;;;;;;;11.85;7.07;;;;;;;;;;5066030;28;20028;-69
2023/06/22 00:34:08;;;;;;;10.77;6.20;;;;;;;;;;5048063;28;20026;-71
2023/06/22 00:36:34;;;;;;;11.93;6.00;;;;;;;;;;5046686;28;20013;-72
2023/06/22 00:39:01;;;;;;;12.30;6.47;;;;;;;;;;5056833;28;20020;-67
2023/06/22 00:41:30;;;;;;;10.18;6.28;;;;;;;;;;5057308;28;20074;-71
2023/06/22 00:43:57;;;;;;;11.68;6.68;;;;;;;;;;5063092;28;20024;-70
2023/06/22 00:46:23;;;;;;;12.10;6.05;;;;;;;;;;5072664;28;20032;-70
2023/06/22 00:48:48;;;;;;;10.18;6.13;;;;;;;;;;5072855;28;20733;-67
2023/06/22 00:51:14;;;;;;;11.98;6.45;;;;;;;;;;5063539;28;20035;-70
2023/06/22 00:53:40;;;;;;;9.43;6.72;;;;;;;;;;5064361;28;20454;-70
2023/06/22 00:56:08;;;;;;;9.38;5.97;;;;;;;;;;5066582;28;20034;-70
2023/06/22 00:58:34;;;;;;;12.43;7.05;;;;;;;;;;5063826;28;20032;-71
2023/06/22 01:01:01;;;;;;;11.45;6.78;;;;;;;;;;5049784;28;20810;-70
2023/06/22 01:03:26;;;;;;;11.25;6.85;;;;;;;;;;5071751;28;20020;-72
2023/06/22 01:05:53;;;;;;;13.90;7.00;;;;;;;;;;5070183;28;20051;-73
2023/06/22 01:08:19;;;;;;;10.90;6.93;;;;;;;;;;5068488;28;20270;-70
2023/06/22 01:11:04;;;;;;;13.05;6.82;;;;;;;;;;5054448;28;20039;-67
2023/06/22 01:13:34;;;;;;;11.07;7.38;;;;;;;;;;5057808;28;20865;-70
2023/06/22 01:15:59;;;;;;;13.00;7.65;;;;;;;;;;5062403;28;20128;-72
2023/06/22 01:18:26;;;;;;;10.17;6.80;;;;;;;;;;5079915;28;20015;-68
2023/06/22 01:20:58;;;;;;;12.00;6.35;;;;;;;;;;5072656;28;20735;-69
2023/06/22 01:23:36;;;;;;;11.63;6.75;;;;;;;;;;5075887;28;20500;-72
2023/06/22 01:26:08;;;;;;;10.75;6.68;;;;;;;;;;5066141;28;20068;-71
2023/06/22 01:28:47;;;;;;;10.82;6.93;;;;;;;;;;5089836;28;20142;-66
2023/06/22 01:31:15;;;;;;;11.80;6.47;;;;;;;;;;5077977;28;20053;-73
2023/06/22 01:33:42;;;;;;;10.50;6.03;;;;;;;;;;5068944;28;20073;-67
2023/06/22 01:36:08;;;;;;;10.60;6.47;;;;;;;;;;5078684;28;20023;-71
2023/06/22 01:38:37;;;;;;;11.48;6.80;;;;;;;;;;5069144;28;20035;-71
2023/06/22 01:41:02;;;;;;;15.38;7.20;;;;;;;;;;5077366;28;20019;-71
2023/06/22 01:43:30;;;;;;;10.95;6.65;;;;;;;;;;5067129;27;20024;-68
2023/06/22 01:45:58;;;;;;;13.20;7.40;;;;;;;;;;5081829;27;20023;-71
2023/06/22 01:48:26;;;;;;;13.27;7.10;;;;;;;;;;5074119;28;20028;-71
2023/06/22 01:50:52;;;;;;;10.68;6.85;;;;;;;;;;5074693;28;20130;-69
2023/06/22 01:53:17;;;;;;;12.60;7.30;;;;;;;;;;5084786;28;20108;-70
2023/06/22 01:55:43;;;;;;;12.20;7.00;;;;;;;;;;5071759;28;20478;-70
2023/06/22 01:58:08;;;;;;;12.98;6.95;;;;;;;;;;5063206;28;20257;-69
2023/06/22 02:00:36;;;;;;;12.77;7.18;;;;;;;;;;5071426;28;20031;-68
2023/06/22 02:03:16;;;;;;;9.93;6.35;;;;;;;;;;5076673;28;20371;-69
2023/06/22 02:05:49;;;;;;;12.23;7.00;;;;;;;;;;5089554;27;20028;-67
2023/06/22 02:08:24;;;;;;;14.30;7.82;;;;;;;;;;5072487;28;20527;-72
2023/06/22 02:10:53;;;;;;;11.63;7.43;;;;;;;;;;5062950;28;20131;-72
2023/06/22 02:13:18;;;;;;;11.87;6.83;;;;;;;;;;5078565;27;20046;-70
2023/06/22 02:15:43;;;;;;;11.63;6.68;;;;;;;;;;5061669;28;20134;-70
2023/06/22 02:18:09;;;;;;;10.32;6.82;;;;;;;;;;5089067;27;20012;-71
2023/06/22 02:20:40;;;;;;;10.45;6.55;;;;;;;;;;5076299;27;20462;-71
2023/06/22 02:23:06;;;;;;;9.95;6.30;;;;;;;;;;5073409;28;20081;-69
2023/06/22 02:25:31;;;;;;;11.32;6.53;;;;;;;;;;5070564;28;20080;-68
2023/06/22 02:27:57;;;;;;;10.75;6.72;;;;;;;;;;5078996;28;20028;-67
2023/06/22 02:30:22;;;;;;;10.40;6.72;;;;;;;;;;5072349;28;20095;-70
2023/06/22 02:32:47;;;;;;;13.30;7.23;;;;;;;;;;5072406;28;20028;-66
2023/06/22 02:35:15;;;;;;;11.18;6.60;;;;;;;;;;5065315;28;20265;-68
2023/06/22 02:37:41;;;;;;;10.88;6.88;;;;;;;;;;5072324;28;20026;-69
2023/06/22 02:40:10;;;;;;;12.63;6.68;;;;;;;;;;5086092;27;20106;-69
2023/06/22 02:42:35;;;;;;;10.27;7.25;;;;;;;;;;5066231;28;20015;-72
2023/06/22 02:45:01;;;;;;;11.70;6.30;;;;;;;;;;5085690;28;20050;-70
2023/06/22 02:47:29;;;;;;;13.43;6.32;;;;;;;;;;5066732;28;20012;-71
2023/06/22 02:49:54;;;;;;;11.63;6.88;;;;;;;;;;5060300;28;20100;-69
2023/06/22 02:52:19;;;;;;;13.40;7.30;;;;;;;;;;5074298;28;20454;-66
2023/06/22 02:54:45;;;;;;;10.57;6.30;;;;;;;;;;5071425;28;20433;-70
2023/06/22 02:57:13;;;;;;;11.95;6.65;;;;;;;;;;5074367;28;20369;-72
2023/06/22 02:59:40;;;;;;;10.68;6.68;;;;;;;;;;5085040;28;20513;-69
2023/06/22 03:02:08;;;;;;;12.32;6.35;;;;;;;;;;5073176;28;20059;-69
2023/06/22 03:04:37;;;;;;;9.60;6.22;;;;;;;;;;5088422;28;20056;-71
2023/06/22 03:07:02;;;;;;;12.50;6.23;;;;;;;;;;5073219;28;20042;-70
2023/06/22 03:09:28;;;;;;;14.32;7.13;;;;;;;;;;5090993;28;20024;-70
2023/06/22 03:11:54;;;;;;;13.95;7.10;;;;;;;;;;5086529;28;20281;-68
2023/06/22 03:14:21;;;;;;;12.52;6.47;;;;;;;;;;5095622;28;20349;-67
2023/06/22 03:16:49;;;;;;;10.85;6.22;;;;;;;;;;5086279;28;20658;-70
2023/06/22 03:19:14;;;;;;;10.77;6.95;;;;;;;;;;5085012;28;20039;-71
2023/06/22 03:21:40;;;;;;;10.63;6.18;;;;;;;;;;5070306;28;20717;-70
2023/06/22 03:24:06;;;;;;;12.48;6.63;;;;;;;;;;5069857;28;20760;-68
2023/06/22 03:26:31;;;;;;;11.32;6.45;;;;;;;;;;5069387;28;20128;-73
2023/06/22 03:28:57;;;;;;;16.17;6.82;;;;;;;;;;5075112;28;20428;-71
2023/06/22 03:31:22;;;;;;;11.07;6.53;;;;;;;;;;5089534;28;20026;-71
2023/06/22 03:33:49;;;;;;;10.30;6.20;;;;;;;;;;5090704;28;20589;-73
2023/06/22 03:36:19;;;;;;;13.02;6.75;;;;;;;;;;5095433;28;20012;-72
2023/06/22 03:38:45;;;;;;;13.10;6.82;;;;;;;;;;5088866;28;20160;-72
2023/06/22 03:41:11;;;;;;;10.73;5.88;;;;;;;;;;5065471;28;20470;-71
2023/06/22 03:43:39;;;;;;;12.32;6.03;;;;;;;;;;5074754;28;20042;-72
2023/06/22 03:46:04;;;;;;;10.77;6.30;;;;;;;;;;5064518;28;20103;-71
2023/06/22 03:48:29;;;;;;;8.83;5.67;;;;;;;;;;5072154;28;20015;-70
2023/06/22 03:50:54;;;;;;;10.43;6.23;;;;;;;;;;5071639;28;20817;-70
2023/06/22 03:53:20;;;;;;;10.40;5.53;;;;;;;;;;5080213;28;20267;-70
2023/06/22 03:55:52;;;;;;;11.73;5.97;;;;;;;;;;5072486;28;20051;-72
2023/06/22 03:58:18;;;;;;;11.95;5.97;;;;;;;;;;5067430;28;20019;-72
2023/06/22 04:00:44;;;;;;;9.43;6.03;;;;;;;;;;5070807;28;20403;-69
2023/06/22 04:03:11;;;;;;;12.63;6.63;;;;;;;;;;5089982;28;20100;-73
2023/06/22 04:05:37;;;;;;;10.40;5.97;;;;;;;;;;5073657;28;20400;-71
2023/06/22 04:08:03;;;;;;;11.77;5.80;;;;;;;;;;5078100;28;20266;-69
2023/06/22 04:10:30;;;;;;;13.45;6.28;;;;;;;;;;5088487;28;20576;-70
2023/06/22 04:12:56;;;;;;;12.68;6.78;;;;;;;;;;5088748;28;20020;-70
2023/06/22 04:15:21;;;;;;;10.23;5.95;;;;;;;;;;5092237;27;20533;-70
2023/06/22 04:17:46;;;;;;;12.93;6.82;;;;;;;;;;5076198;28;20727;-70
2023/06/22 04:20:12;;;;;;;13.90;6.77;;;;;;;;;;5094241;27;20214;-67
2023/06/22 04:22:37;;;;;;;11.47;6.70;;;;;;;;;;5068312;28;20123;-73
2023/06/22 04:25:02;;;;;;;13.57;6.70;;;;;;;;;;5076083;28;20273;-70
2023/06/22 04:27:28;;;;;;;10.57;6.20;;;;;;;;;;5072467;28;20843;-73
2023/06/22 04:29:55;;;;;;;12.02;6.03;;;;;;;;;;5071944;28;20016;-72
2023/06/22 04:32:23;;;;;;;11.10;6.45;;;;;;;;;;5081048;28;20536;-71
2023/06/22 04:34:48;;;;;;;12.77;6.28;;;;;;;;;;5088930;27;20627;-72
2023/06/22 04:37:16;;;;;;;10.93;6.33;;;;;;;;;;5079300;28;20020;-71
2023/06/22 04:39:42;;;;;;;13.93;6.40;;;;;;;;;;5092615;28;20261;-69
2023/06/22 04:42:08;;;;;;;12.77;6.63;;;;;;;;;;5077575;27;20449;-72
2023/06/22 04:44:33;;;;;;;9.65;6.45;;;;;;;;;;5072849;28;20141;-72
2023/06/22 04:47:03;;;;;;;10.97;7.27;;;;;;;;;;5076923;28;20118;-71
2023/06/22 04:49:37;;;;;;;12.65;6.05;;;;;;;;;;5076926;28;20253;-71
2023/06/22 04:52:04;;;;;;;12.13;6.07;;;;;;;;;;5087789;27;20039;-71
2023/06/22 04:54:35;;;;;;;14.52;6.70;;;;;;;;;;5068154;27;20022;-72
2023/06/22 04:57:00;;;;;;;12.02;6.35;;;;;;;;;;5073712;28;20019;-68
2023/06/22 04:59:29;;;;;;;10.48;5.95;;;;;;;;;;5091288;28;20073;-70
2023/06/22 05:01:59;;;;;;;11.43;6.40;;;;;;;;;;5079344;28;20540;-68
2023/06/22 05:04:24;;;;;;;11.57;6.03;;;;;;;;;;5088006;27;20028;-67
2023/06/22 05:06:53;;;;;;;11.10;6.28;;;;;;;;;;5092044;28;20020;-69
2023/06/22 05:09:20;;;;;;;11.70;6.35;;;;;;;;;;5069183;28;20049;-71
2023/06/22 05:11:46;;;;;;;11.02;6.22;;;;;;;;;;5071569;27;20553;-69
2023/06/22 05:14:16;;;;;;;12.70;5.78;;;;;;;;;;5074381;28;20016;-70
2023/06/22 05:16:42;;;;;;;12.73;6.15;;;;;;;;;;5073743;28;20056;-67
2023/06/22 05:19:07;;;;;;;14.95;6.03;;;;;;;;;;5053275;28;20028;-75
2023/06/22 05:21:32;;;;;;;13.60;5.90;;;;;;;;;;5053885;28;20456;-70
2023/06/22 05:24:02;;;;;;;11.50;5.75;;;;;;;;;;5056438;28;20274;-71
2023/06/22 05:26:28;;;;;;;13.60;6.15;;;;;;;;;;5049435;28;20027;-71
2023/06/22 05:28:53;;;;;;;12.02;6.45;;;;;;;;;;5064553;28;20664;-73
2023/06/22 05:31:19;;;;;;;12.07;6.25;;;;;;;;;;5054947;28;20076;-73
2023/06/22 05:33:45;;;;;;;10.50;6.22;;;;;;;;;;5056998;28;20030;-71
2023/06/22 05:36:10;;;;;;;12.65;5.65;;;;;;;;;;5059892;28;20126;-71
2023/06/22 05:38:36;;;;;;;11.55;5.63;;;;;;;;;;5056449;28;20020;-75
2023/06/22 05:41:04;;;;;;;13.63;6.22;;;;;;;;;;5055912;28;20753;-72
2023/06/22 05:43:29;;;;;;;10.55;6.10;;;;;;;;;;5068744;28;20844;-69
2023/06/22 05:45:56;;;;;;;12.63;6.15;;;;;;;;;;5050098;28;20044;-70
2023/06/22 05:48:21;;;;;;;10.93;5.65;;;;;;;;;;5062421;28;20027;-74
2023/06/22 05:50:46;;;;;;;12.52;6.05;;;;;;;;;;5069656;28;20712;-74
2023/06/22 05:53:14;;;;;;;10.53;5.57;;;;;;;;;;5050842;28;20016;-69
2023/06/22 05:55:40;;;;;;;10.52;6.20;;;;;;;;;;5053728;28;20274;-70
2023/06/22 05:58:08;;;;;;;11.55;6.25;;;;;;;;;;5052905;28;20100;-72
2023/06/22 06:00:33;;;;;;;11.32;5.82;;;;;;;;;;5047511;28;20445;-70
2023/06/22 06:03:02;;;;;;;13.73;6.50;;;;;;;;;;5052230;28;20021;-71
2023/06/22 06:05:28;;;;;;;10.20;5.75;;;;;;;;;;5068219;28;20012;-66
2023/06/22 06:07:55;;;;;;;11.02;6.05;;;;;;;;;;5054516;28;20048;-70
2023/06/22 06:10:23;;;;;;;9.43;6.03;;;;;;;;;;5065109;28;20091;-68
2023/06/22 06:12:48;;;;;;;10.50;6.13;;;;;;;;;;5045066;28;20031;-69
2023/06/22 06:15:13;;;;;;;10.87;6.17;;;;;;;;;;5049108;28;20048;-69
2023/06/22 06:18:06;;;;;;;10.35;5.88;;;;;;;;;;5064702;28;20039;-69
2023/06/22 06:20:31;;;;;;;15.38;6.28;;;;;;;;;;5061987;28;20054;-70
2023/06/22 06:22:59;;;;;;;11.18;6.05;;;;;;;;;;5055035;28;20020;-72
2023/06/22 06:25:25;;;;;;;13.00;5.75;;;;;;;;;;5068068;28;20064;-70
2023/06/22 06:27:51;;;;;;;10.75;6.53;;;;;;;;;;5069412;28;20143;-67
2023/06/22 06:30:17;;;;;;;12.48;6.68;;;;;;;;;;5055753;28;20031;-72
2023/06/22 06:32:43;;;;;;;11.63;6.18;;;;;;;;;;5065328;28;20046;-69
2023/06/22 06:35:12;;;;;;;12.77;6.50;;;;;;;;;;5062517;28;20024;-67
2023/06/22 06:37:38;;;;;;;8.88;6.53;;;;;;;;;;5055551;28;20018;-73
2023/06/22 06:40:10;;;;;;;13.13;6.18;;;;;;;;;;5049616;28;20055;-69
2023/06/22 06:42:37;;;;;;;10.90;5.53;;;;;;;;;;5048871;28;20093;-67
2023/06/22 06:45:03;;;;;;;10.57;5.72;;;;;;;;;;5052444;28;20122;-71
2023/06/22 06:47:31;;;;;;;10.98;5.82;;;;;;;;;;5065871;28;20008;-73
2023/06/22 06:49:56;;;;;;;11.57;5.88;;;;;;;;;;5053471;28;20024;-71
2023/06/22 06:52:22;;;;;;;11.10;5.97;;;;;;;;;;5046592;28;20032;-66
2023/06/22 06:54:47;;;;;;;10.97;5.63;;;;;;;;;;5045692;28;20564;-71
2023/06/22 06:57:15;;;;;;;11.80;6.15;;;;;;;;;;5054041;28;20263;-69
2023/06/22 06:59:40;;;;;;;11.27;5.82;;;;;;;;;;5050991;28;20568;-66
2023/06/22 07:02:10;;;;;;;9.97;6.43;;;;;;;;;;5037592;28;20032;-68
2023/06/22 07:04:36;;;;;;;13.57;6.10;;;;;;;;;;5057226;28;20268;-70
2023/06/22 07:07:04;;;;;;;12.80;5.70;;;;;;;;;;5046508;28;20770;-73
2023/06/22 07:09:31;;;;;;;10.30;5.78;;;;;;;;;;5052585;28;20074;-67
2023/06/22 07:11:57;;;;;;;9.73;6.05;;;;;;;;;;5040694;28;20036;-72
2023/06/22 07:14:22;;;;;;;11.50;6.55;;;;;;;;;;5055302;28;20013;-69
2023/06/22 07:16:47;;;;;;;12.27;6.63;;;;;;;;;;5044962;28;20089;-71
2023/06/22 07:19:15;;;;;;;12.97;5.90;;;;;;;;;;5059138;28;20601;-71
2023/06/22 07:21:43;;;;;;;11.80;5.50;;;;;;;;;;5048500;28;21107;-68
2023/06/22 07:24:08;;;;;;;11.23;5.82;;;;;;;;;;5057095;28;20808;-68
2023/06/22 07:26:33;;;;;;;12.27;6.17;;;;;;;;;;5057490;28;20028;-69
2023/06/22 07:28:59;;;;;;;13.80;6.60;;;;;;;;;;5058689;28;20286;-71
2023/06/22 07:31:24;;;;;;;13.02;6.38;;;;;;;;;;5073904;28;20440;-68
2023/06/22 07:33:49;;;;;;;16.23;6.38;;;;;;;;;;5065075;28;20576;-71
2023/06/22 07:36:16;;;;;;;13.30;6.20;;;;;;;;;;5063015;28;20058;-72
2023/06/22 07:38:43;;;;;;;13.25;6.18;;;;;;;;;;5060900;28;21247;-71
2023/06/22 07:41:11;;;;;;;12.10;6.03;;;;;;;;;;5064728;28;20473;-71
2023/06/22 07:43:37;;;;;;;13.45;5.75;;;;;;;;;;5065674;28;20020;-68
2023/06/22 07:46:05;;;;;;;14.38;6.55;;;;;;;;;;5064014;28;20442;-70
2023/06/22 07:48:30;;;;;;;13.05;6.57;;;;;;;;;;5081400;28;20023;-67
2023/06/22 07:50:55;;;;;;;11.03;5.93;;;;;;;;;;5060167;28;20063;-67
2023/06/22 07:53:21;;;;;;;11.97;6.00;;;;;;;;;;5079763;27;20268;-71
2023/06/22 07:55:49;;;;;;;24.15;8.93;;;;;;;;;;5063096;28;20324;-66
2023/06/22 07:58:15;;;;;;;14.48;7.47;;;;;;;;;;5080551;27;20024;-71
2023/06/22 08:00:43;;;;;;;12.85;6.57;;;;;;;;;;5067493;28;20356;-69
2023/06/22 08:03:08;;;;;;;14.93;7.07;;;;;;;;;;5071597;27;20114;-68
2023/06/22 08:05:33;;;;;;;13.70;8.47;;;;;;;;;;5069918;27;20092;-67
2023/06/22 08:07:59;;;;;;;12.73;7.30;;;;;;;;;;5083026;28;20264;-70
2023/06/22 08:10:26;;;;;;;14.18;6.55;;;;;;;;;;5066066;28;20278;-71
2023/06/22 08:12:52;;;;;;;11.80;7.00;;;;;;;;;;5061408;28;20031;-71
2023/06/22 08:15:20;;;;;;;11.77;6.95;;;;;;;;;;5077929;27;20044;-73
2023/06/22 08:17:47;;;;;;;12.77;6.07;;;;;;;;;;5059979;28;20026;-75
2023/06/22 08:20:13;;;;;;;9.65;6.15;;;;;;;;;;5047125;28;20075;-72
2023/06/22 08:22:41;;;;;;;13.65;6.10;;;;;;;;;;5064449;28;20566;-68
2023/06/22 08:25:07;;;;;;;12.25;6.28;;;;;;;;;;5048500;28;20463;-72
2023/06/22 08:27:32;;;;;;;11.68;5.43;;;;;;;;;;5066140;28;20062;-70
2023/06/22 08:29:58;;;;;;;11.13;6.15;;;;;;;;;;5051498;28;20027;-75
2023/06/22 08:32:27;;;;;;;12.35;6.20;;;;;;;;;;5063605;28;20027;-72
2023/06/22 08:34:55;;;;;;;13.48;6.13;;;;;;;;;;5062117;28;20103;-70
2023/06/22 08:37:30;;;;;;;10.52;6.18;;;;;;;;;;5043012;28;20021;-73
2023/06/22 08:39:56;;;;;;;10.63;5.35;;;;;;;;;;5050878;28;20021;-72
2023/06/22 08:42:23;;;;;;;12.73;6.18;;;;;;;;;;5052416;28;20756;-77
2023/06/22 08:44:51;;;;;;;14.07;6.10;;;;;;;;;;5049254;28;20062;-69
2023/06/22 08:47:16;;;;;;;11.27;6.40;;;;;;;;;;5062984;28;20209;-70
2023/06/22 08:49:41;;;;;;;11.93;5.93;;;;;;;;;;5061298;28;20546;-75
2023/06/22 08:52:07;;;;;;;13.70;6.60;;;;;;;;;;5067135;28;20035;-67
2023/06/22 08:54:34;;;;;;;13.38;6.20;;;;;;;;;;5068860;28;20052;-68
2023/06/22 08:57:00;;;;;;;14.93;5.80;;;;;;;;;;5069635;28;20034;-67
2023/06/22 08:59:27;;;;;;;10.55;5.57;;;;;;;;;;5059803;28;20139;-71
2023/06/22 09:01:53;;;;;;;12.77;6.13;;;;;;;;;;5069664;28;20307;-74
2023/06/22 09:04:18;;;;;;;11.20;6.10;;;;;;;;;;5061170;28;20493;-71
2023/06/22 09:06:45;;;;;;;12.00;5.97;;;;;;;;;;5065143;28;20279;-71
2023/06/22 09:09:14;;;;;;;12.70;5.68;;;;;;;;;;5057169;28;20021;-67
2023/06/22 09:11:42;;;;;;;11.63;5.50;;;;;;;;;;5065180;28;20205;-75
2023/06/22 09:14:08;;;;;;;13.50;5.85;;;;;;;;;;5047136;28;20070;-76
2023/06/22 09:16:34;;;;;;;10.82;5.28;;;;;;;;;;5051857;28;20048;-72
2023/06/22 09:19:04;;;;;;;10.50;5.88;;;;;;;;;;5069147;28;20311;-69
2023/06/22 09:21:29;;;;;;;12.27;6.20;;;;;;;;;;5074766;28;20027;-75
2023/06/22 09:23:55;;;;;;;12.90;5.70;;;;;;;;;;5072034;28;20314;-71
2023/06/22 09:26:23;;;;;;;11.35;5.90;;;;;;;;;;5084616;28;20823;-68
2023/06/22 09:28:49;;;;;;;11.53;5.77;;;;;;;;;;5065968;28;20196;-71
2023/06/22 09:31:25;;;;;;;12.60;5.75;;;;;;;;;;5072885;28;20430;-73
2023/06/22 09:33:52;;;;;;;11.32;5.20;;;;;;;;;;5079529;28;20020;-68
2023/06/22 09:36:18;;;;;;;9.80;5.32;;;;;;;;;;5084637;28;20398;-66
2023/06/22 09:38:43;;;;;;;13.60;6.10;;;;;;;;;;5073661;28;20544;-72
2023/06/22 09:41:11;;;;;;;10.73;5.67;;;;;;;;;;5068858;28;21159;-71
2023/06/22 09:43:38;;;;;;;10.70;5.30;;;;;;;;;;5084412;27;20055;-69
2023/06/22 09:46:04;;;;;;;10.05;5.13;;;;;;;;;;5067542;27;20026;-71
2023/06/22 09:48:30;;;;;;;11.27;5.40;;;;;;;;;;5074559;28;20016;-76
2023/06/22 09:50:55;;;;;;;14.23;5.95;;;;;;;;;;5064882;28;20269;-68
2023/06/22 09:53:20;;;;;;;10.20;5.67;;;;;;;;;;5065336;28;20035;-72
2023/06/22 09:55:48;;;;;;;10.67;6.40;;;;;;;;;;5077219;27;20672;-71
2023/06/22 09:58:13;;;;;;;10.55;6.00;;;;;;;;;;5073302;28;20034;-71
2023/06/22 10:00:41;;;;;;;10.47;5.80;;;;;;;;;;5068650;28;21180;-76
2023/06/22 10:03:07;;;;;;;11.27;5.93;;;;;;;;;;5074057;28;20039;-72
2023/06/22 10:05:35;;;;;;;10.60;5.90;;;;;;;;;;5065156;28;20374;-70
2023/06/22 10:08:00;;;;;;;14.55;5.80;;;;;;;;;;5072598;28;20053;-70
2023/06/22 10:10:28;;;;;;;10.73;6.67;;;;;;;;;;5061051;28;20028;-70
2023/06/22 10:12:57;;;;;;;9.50;5.93;;;;;;;;;;5061733;28;20409;-73
2023/06/22 10:15:22;;;;;;;10.57;5.82;;;;;;;;;;5060962;28;20051;-71
2023/06/22 10:17:50;;;;;;;13.38;6.35;;;;;;;;;;5060130;28;20020;-72
2023/06/22 10:20:17;;;;;;;9.73;6.00;;;;;;;;;;5065428;28;20552;-72
2023/06/22 10:22:45;;;;;;;15.52;5.90;;;;;;;;;;5062895;28;20288;-70
2023/06/22 10:25:12;;;;;;;10.73;6.15;;;;;;;;;;5061075;28;20028;-69
2023/06/22 10:27:39;;;;;;;11.30;6.82;;;;;;;;;;5074255;28;20027;-71
2023/06/22 10:30:06;;;;;;;10.27;5.60;;;;;;;;;;5070927;27;20072;-72
2023/06/22 10:32:31;;;;;;;11.00;5.57;;;;;;;;;;5062381;28;20028;-66
2023/06/22 10:34:56;;;;;;;11.17;6.17;;;;;;;;;;5068734;28;20604;-68
2023/06/22 10:37:22;;;;;;;10.50;5.83;;;;;;;;;;5082757;28;20019;-68
2023/06/22 10:39:47;;;;;;;12.80;5.35;;;;;;;;;;5077581;28;20026;-68
2023/06/22 10:42:15;;;;;;;13.17;5.10;;;;;;;;;;5065913;28;20036;-69
2023/06/22 10:44:43;;;;;;;11.07;4.97;;;;;;;;;;5061749;28;21252;-66
2023/06/22 10:47:08;;;;;;;9.15;5.40;;;;;;;;;;5060086;28;20030;-68
2023/06/22 10:49:33;;;;;;;12.35;5.53;;;;;;;;;;5079429;28;20487;-65
2023/06/22 10:52:01;;;;;;;13.43;5.03;;;;;;;;;;5087056;28;20092;-67
2023/06/22 10:54:26;;;;;;;13.20;4.93;;;;;;;;;;5071831;28;20027;-68
2023/06/22 10:56:51;;;;;;;9.13;4.70;;;;;;;;;;5072512;28;20019;-66
2023/06/22 10:59:23;;;;;;;9.90;4.80;;;;;;;;;;5084553;28;20023;-68
2023/06/22 11:01:51;;;;;;;12.82;4.65;;;;;;;;;;5061229;28;20573;-66
2023/06/22 11:04:18;;;;;;;12.98;4.68;;;;;;;;;;5068868;28;20126;-68
2023/06/22 11:06:45;;;;;;;10.45;4.50;;;;;;;;;;5079646;28;20035;-68
2023/06/22 11:09:11;;;;;;;9.38;5.00;;;;;;;;;;5060909;28;20027;-66
2023/06/22 11:11:36;;;;;;;12.27;5.25;;;;;;;;;;5070762;28;20024;-68
2023/06/22 11:14:02;;;;;;;12.18;5.22;;;;;;;;;;5073693;28;20124;-67
2023/06/22 11:16:27;;;;;;;13.00;5.23;;;;;;;;;;5085884;27;20040;-67
2023/06/22 11:18:52;;;;;;;14.15;5.68;;;;;;;;;;5066552;28;20561;-67
2023/06/22 11:21:17;;;;;;;10.97;5.10;;;;;;;;;;5065209;28;20118;-63
2023/06/22 11:23:43;;;;;;;10.27;4.57;;;;;;;;;;5082752;28;20074;-65
2023/06/22 11:26:10;;;;;;;10.43;4.83;;;;;;;;;;5085111;28;20024;-65
2023/06/22 11:28:36;;;;;;;12.52;5.30;;;;;;;;;;5081845;28;20028;-67
2023/06/22 11:31:01;;;;;;;13.53;6.10;;;;;;;;;;5063571;28;20042;-66
2023/06/22 11:33:27;;;;;;;12.32;5.93;;;;;;;;;;5068365;28;20023;-66
2023/06/22 11:35:52;;;;;;;10.20;5.78;;;;;;;;;;5078863;28;20378;-66
2023/06/22 11:38:17;;;;;;;8.73;5.07;;;;;;;;;;5080109;28;20485;-67
2023/06/22 11:40:43;;;;;;;14.60;5.53;;;;;;;;;;5078579;28;20086;-66
2023/06/22 11:43:10;;;;;;;10.80;4.97;;;;;;;;;;5070628;28;20012;-67
2023/06/22 11:45:38;;;;;;;11.23;4.90;;;;;;;;;;5080312;28;20276;-67
2023/06/22 11:48:06;;;;;;;8.95;4.75;;;;;;;;;;5074900;28;20113;-64
2023/06/22 11:50:35;;;;;;;13.02;4.95;;;;;;;;;;5068400;28;20114;-68
2023/06/22 11:53:03;;;;;;;11.00;4.68;;;;;;;;;;5092337;28;20031;-66
2023/06/22 11:55:28;;;;;;;12.20;4.68;;;;;;;;;;5068672;28;20084;-67
2023/06/22 11:57:55;;;;;;;10.48;4.78;;;;;;;;;;5089170;28;20032;-68
2023/06/22 12:00:23;;;;;;;6.63;3.72;;;;;;;;;;5062670;28;20033;-66
2023/06/22 12:02:51;;;;;;;14.20;4.85;;;;;;;;;;5063572;28;20031;-67
2023/06/22 12:05:16;;;;;;;10.27;3.83;;;;;;;;;;5069810;28;20039;-65
2023/06/22 12:07:44;;;;;;;10.70;3.93;;;;;;;;;;5084095;28;20496;-64
2023/06/22 12:10:09;;;;;;;9.43;4.10;;;;;;;;;;5079933;28;20275;-65
2023/06/22 12:12:37;;;;;;;9.88;4.03;;;;;;;;;;5082803;28;20130;-66
2023/06/22 12:15:03;;;;;;;10.52;4.50;;;;;;;;;;5088455;28;20022;-66
2023/06/22 12:17:31;;;;;;;11.70;4.35;;;;;;;;;;5080457;28;20397;-66
2023/06/22 12:19:56;;;;;;;9.88;4.30;;;;;;;;;;5074873;28;20027;-68
2023/06/22 12:22:24;;;;;;;10.70;4.40;;;;;;;;;;5069224;28;20023;-67
2023/06/22 12:24:49;;;;;;;9.30;3.97;;;;;;;;;;5087101;28;20253;-64
2023/06/22 12:27:18;;;;;;;11.27;4.20;;;;;;;;;;5083292;28;20020;-67
2023/06/22 12:29:45;;;;;;;10.27;4.20;;;;;;;;;;5068743;28;20030;-68
2023/06/22 12:32:12;;;;;;;11.50;4.45;;;;;;;;;;5090910;28;20715;-66
2023/06/22 12:34:44;;;;;;;10.60;4.72;;;;;;;;;;5086088;27;20140;-67
2023/06/22 12:37:12;;;;;;;16.70;5.20;;;;;;;;;;5082683;28;20024;-65
2023/06/22 12:39:39;;;;;;;10.93;5.05;;;;;;;;;;5089500;27;20030;-64
2023/06/22 12:42:04;;;;;;;9.60;4.95;;;;;;;;;;5093649;28;20034;-67
2023/06/22 12:44:29;;;;;;;10.60;5.00;;;;;;;;;;5091478;28;20931;-67
2023/06/22 12:46:55;;;;;;;16.87;5.17;;;;;;;;;;5094110;28;20027;-65
2023/06/22 12:49:20;;;;;;;10.48;4.68;;;;;;;;;;5103693;27;20020;-66
2023/06/22 12:51:45;;;;;;;11.70;4.93;;;;;;;;;;5070370;28;20565;-66
2023/06/22 12:54:11;;;;;;;9.83;4.70;;;;;;;;;;5064731;28;20047;-67
2023/06/22 12:56:37;;;;;;;12.32;5.03;;;;;;;;;;5080442;28;20020;-68
2023/06/22 12:59:03;;;;;;;14.93;5.35;;;;;;;;;;5080342;27;20127;-68
2023/06/22 13:01:31;;;;;;;12.13;5.07;;;;;;;;;;5077717;28;20032;-67
2023/06/22 13:03:57;;;;;;;11.45;5.40;;;;;;;;;;5051612;28;20533;-69
2023/06/22 13:06:22;;;;;;;13.90;5.47;;;;;;;;;;5064702;28;20069;-69
2023/06/22 13:08:47;;;;;;;13.80;5.27;;;;;;;;;;5063762;28;20969;-68
2023/06/22 13:11:13;;;;;;;11.52;5.55;;;;;;;;;;5060138;28;20180;-70
2023/06/22 13:13:40;;;;;;;12.87;6.00;;;;;;;;;;5079552;27;20035;-67
2023/06/22 13:16:08;;;;;;;9.85;5.25;;;;;;;;;;5061143;28;20364;-68
2023/06/22 13:18:35;;;;;;;11.13;5.60;;;;;;;;;;5074658;27;20050;-69
2023/06/22 13:21:01;;;;;;;10.65;5.28;;;;;;;;;;5064746;28;20466;-69
2023/06/22 13:23:26;;;;;;;11.75;5.65;;;;;;;;;;5057074;27;20023;-68
2023/06/22 13:25:51;;;;;;;9.87;6.03;;;;;;;;;;5081636;28;20143;-69
2023/06/22 13:28:17;;;;;;;10.40;5.60;;;;;;;;;;5075398;27;20008;-68
2023/06/22 13:30:42;;;;;;;11.43;5.82;;;;;;;;;;5081952;28;20300;-69
2023/06/22 13:33:08;;;;;;;13.20;5.88;;;;;;;;;;5060691;28;20124;-69
2023/06/22 13:35:37;;;;;;;10.07;5.63;;;;;;;;;;5061500;28;20248;-68
2023/06/22 13:38:02;;;;;;;;;;;;;;;;;;5065326;28;20028;-70
2023/06/22 13:40:28;;;;;;;10.83;5.57;;;;;;;;;;5061736;28;20255;-67
2023/06/22 13:42:53;;;;;;;13.17;5.60;;;;;;;;;;5061195;28;20027;-68
2023/06/22 13:45:21;;;;;;;11.80;6.10;;;;;;;;;;5066409;28;20313;-68
2023/06/22 13:47:46;;;;;;;10.10;5.40;;;;;;;;;;5067153;28;20085;-67
2023/06/22 13:50:15;;;;;;;11.45;6.13;;;;;;;;;;5061480;28;20028;-69
2023/06/22 13:52:40;;;;;;;10.83;5.67;;;;;;;;;;5061203;28;20416;-68
2023/06/22 13:55:06;;;;;;;10.67;5.93;;;;;;;;;;5065024;28;20713;-68
2023/06/22 13:57:32;;;;;;;12.98;6.25;;;;;;;;;;5064305;28;20096;-68
2023/06/22 13:59:57;;;;;;;15.95;5.93;;;;;;;;;;5065110;28;20735;-69
2023/06/22 14:02:22;;;;;;;15.17;5.83;;;;;;;;;;5062301;28;20063;-68
2023/06/22 14:04:50;;;;;;;12.63;5.80;;;;;;;;;;5076150;28;20023;-68
2023/06/22 14:07:15;;;;;;;13.13;5.65;;;;;;;;;;5067037;28;20038;-68
2023/06/22 14:09:43;;;;;;;16.48;6.18;;;;;;;;;;5064476;28;20028;-68
2023/06/22 14:12:09;;;;;;;14.23;6.65;;;;;;;;;;5061327;27;20326;-68
2023/06/22 14:14:35;;;;;;;13.98;6.72;;;;;;;;;;5072585;28;20015;-66
2023/06/22 14:17:00;;;;;;;13.73;5.87;;;;;;;;;;5077431;27;20048;-68
2023/06/22 14:19:25;;;;;;;12.80;6.38;;;;;;;;;;5081796;27;20024;-69
2023/06/22 14:21:51;;;;;;;13.47;6.07;;;;;;;;;;5078099;28;20537;-68
2023/06/22 14:24:16;;;;;;;14.07;6.47;;;;;;;;;;5083156;28;20019;-69
2023/06/22 14:26:41;;;;;;;11.57;6.57;;;;;;;;;;5077362;27;20794;-68